createdAt,value
2022-08-22T00:02:35.364Z,101685.63
2022-08-22T00:02:46.733Z,101670.41
2022-08-22T00:03:02.491Z,101701.94
2022-08-22T00:03:03.715Z,101673.03
2022-08-22T00:03:08.826Z,101674.34
2022-08-22T00:05:12.896Z,101684.66
2022-08-22T00:07:53.826Z,101685.63
2022-08-22T00:10:29.460Z,101689.09
2022-08-22T00:13:07.491Z,101655.72
2022-08-22T00:15:44.436Z,101697.28
2022-08-22T00:18:19.738Z,101698.09
2022-08-22T00:21:02.935Z,101684.88
2022-08-22T00:23:38.426Z,101697.97
2022-08-22T00:26:22.057Z,101695.47
2022-08-22T00:28:56.426Z,101674.22
2022-08-22T00:31:32.358Z,101668.97
2022-08-22T00:34:08.089Z,101692.81
2022-08-22T00:36:48.133Z,101690.16
2022-08-22T00:39:23.300Z,101687.50
2022-08-22T00:42:38.013Z,101697.13
2022-08-22T00:45:40.837Z,101689.28
2022-08-22T00:48:50.964Z,101709.44
2022-08-22T00:51:53.108Z,101692.56
2022-08-22T00:54:37.678Z,101689.94
2022-08-22T00:57:35.231Z,101676.03
2022-08-22T01:00:16.760Z,101671.59
2022-08-22T01:03:21.250Z,101661.78
2022-08-22T01:06:08.638Z,101695.22
2022-08-22T01:09:01.794Z,101663.50
2022-08-22T01:11:58.691Z,101692.44
2022-08-22T01:14:44.200Z,101667.88
2022-08-22T01:17:51.405Z,101699.53
2022-08-22T01:21:27.306Z,101684.53
2022-08-22T01:25:22.376Z,101694.25
2022-08-22T01:28:47.755Z,101694.25
2022-08-22T01:32:20.594Z,101674.84
2022-08-22T01:35:17.058Z,101668.72
2022-08-22T01:38:31.502Z,101695.06
2022-08-22T01:41:51.409Z,101690.69
2022-08-22T01:44:44.145Z,101692.50
2022-08-22T01:47:17.776Z,101682.81
2022-08-22T01:49:53.199Z,101697.78
2022-08-22T01:52:41.588Z,101687.22
2022-08-22T01:55:23.909Z,101704.81
2022-08-22T01:57:57.522Z,101680.09
2022-08-22T02:00:35.873Z,101680.25
2022-08-22T02:03:20.700Z,101704.91
2022-08-22T02:06:00.280Z,101677.50
2022-08-22T02:08:45.009Z,101689.81
2022-08-22T02:11:35.868Z,101681.00
2022-08-22T02:14:15.241Z,101692.53
2022-08-22T02:16:49.491Z,101675.78
2022-08-22T02:19:34.615Z,101689.84
2022-08-22T02:22:14.947Z,101690.72
2022-08-22T02:24:55.632Z,101688.13
2022-08-22T02:27:37.072Z,101695.16
2022-08-22T02:30:11.104Z,101672.28
2022-08-22T02:32:58.932Z,101697.97
2022-08-22T02:35:36.338Z,101668.94
2022-08-22T02:38:23.053Z,101684.63
2022-08-22T02:41:09.955Z,101673.97
2022-08-22T02:43:49.699Z,101669.63
2022-08-22T02:46:30.601Z,101681.16
2022-08-22T02:49:10.353Z,101659.97
2022-08-22T02:51:48.385Z,101653.06
2022-08-22T02:54:25.820Z,101687.41
2022-08-22T02:57:14.026Z,101694.44
2022-08-22T03:00:31.891Z,101685.53
2022-08-22T03:03:16.167Z,101684.69
2022-08-22T03:06:01.733Z,101645.13
2022-08-22T03:08:34.514Z,101683.88
2022-08-22T03:11:18.812Z,101669.63
2022-08-22T03:14:02.680Z,101658.97
2022-08-22T03:16:40.185Z,101649.31
2022-08-22T03:19:18.900Z,101653.06
2022-08-22T03:21:59.376Z,101660.19
2022-08-22T03:24:38.529Z,101661.88
2022-08-22T03:27:27.797Z,101632.72
2022-08-22T03:30:07.947Z,101647.72
2022-08-22T03:32:56.601Z,101667.91
2022-08-22T03:35:40.087Z,101638.91
2022-08-22T03:38:20.734Z,101661.88
2022-08-22T03:41:10.407Z,101659.16
2022-08-22T03:44:02.983Z,101627.53
2022-08-22T03:46:57.241Z,101653.06
2022-08-22T03:50:10.624Z,101653.06
2022-08-22T03:53:25.984Z,101618.66
2022-08-22T03:56:45.511Z,101647.69
2022-08-22T03:59:53.927Z,101631.84
2022-08-22T04:03:04.872Z,101644.34
2022-08-22T04:06:11.489Z,101626.66
2022-08-22T04:09:33.819Z,101637.22
2022-08-22T04:12:56.699Z,101658.38
2022-08-22T04:16:22.795Z,101663.78
2022-08-22T04:19:32.237Z,101647.13
2022-08-22T04:22:33.208Z,101666.34
2022-08-22T04:25:08.157Z,101668.19
2022-08-22T04:27:50.087Z,101656.75
2022-08-22T04:30:26.897Z,101668.19
2022-08-22T04:33:06.530Z,101635.66
2022-08-22T04:35:41.665Z,101671.75
2022-08-22T04:38:17.854Z,101676.97
2022-08-22T04:40:51.819Z,101640.91
2022-08-22T04:43:27.591Z,101641.75
2022-08-22T04:46:05.418Z,101654.97
2022-08-22T04:48:38.963Z,101650.59
2022-08-22T04:51:17.840Z,101656.78
2022-08-22T04:54:22.332Z,101654.22
2022-08-22T04:57:10.273Z,101672.75
2022-08-22T04:59:39.793Z,101677.22
2022-08-22T05:02:12.754Z,101652.47
2022-08-22T05:04:46.730Z,101681.63
2022-08-22T05:07:21.462Z,101686.97
2022-08-22T05:09:56.526Z,101670.28
2022-08-22T05:12:32.939Z,101657.00
2022-08-22T05:15:09.769Z,101687.81
2022-08-22T05:17:41.286Z,101685.22
2022-08-22T05:20:16.840Z,101688.66
2022-08-22T05:22:53.058Z,101691.19
2022-08-22T05:25:27.039Z,101692.06
2022-08-22T05:28:12.079Z,101700.97
2022-08-22T05:30:41.356Z,101680.59
2022-08-22T05:33:19.702Z,101702.56
2022-08-22T05:35:57.692Z,101705.00
2022-08-22T05:38:33.439Z,101704.22
2022-08-22T05:41:08.789Z,101700.69
2022-08-22T05:43:43.189Z,101700.44
2022-08-22T05:46:19.989Z,101676.63
2022-08-22T05:48:58.809Z,101708.25
2022-08-22T05:51:34.522Z,101675.56
2022-08-22T05:54:14.673Z,101685.22
2022-08-22T05:56:48.332Z,101696.53
2022-08-22T05:59:27.544Z,101679.72
2022-08-22T06:02:07.195Z,101680.53
2022-08-22T06:04:46.124Z,101691.94
2022-08-22T06:07:20.704Z,101692.69
2022-08-22T06:10:21.178Z,101689.78
2022-08-22T06:12:57.597Z,101703.84
2022-08-22T06:15:35.687Z,101699.38
2022-08-22T06:18:11.504Z,101700.09
2022-08-22T06:20:45.321Z,101684.16
2022-08-22T06:23:22.185Z,101700.03
2022-08-22T06:25:54.972Z,101678.78
2022-08-22T06:28:28.052Z,101706.69
2022-08-22T06:30:59.108Z,101694.13
2022-08-22T06:33:30.406Z,101697.63
2022-08-22T06:36:21.266Z,101689.69
2022-08-22T06:39:07.171Z,101693.84
2022-08-22T06:41:42.764Z,101691.16
2022-08-22T06:44:21.087Z,101696.22
2022-08-22T06:46:55.118Z,101691.75
2022-08-22T06:49:26.749Z,101727.25
2022-08-22T06:52:00.960Z,101718.09
2022-08-22T06:54:36.272Z,101723.25
2022-08-22T06:57:11.541Z,101700.38
2022-08-22T06:59:40.747Z,101722.03
2022-08-22T07:02:22.539Z,101713.03
2022-08-22T07:04:52.280Z,101704.88
2022-08-22T07:07:24.963Z,101679.66
2022-08-22T07:09:56.133Z,101692.19
2022-08-22T07:12:31.209Z,101698.00
2022-08-22T07:15:10.835Z,101694.00
2022-08-22T07:17:50.672Z,101693.03
2022-08-22T07:20:27.978Z,101674.97
2022-08-22T07:23:00.180Z,101666.06
2022-08-22T07:25:29.824Z,101662.16
2022-08-22T07:28:36.574Z,101683.63
2022-08-22T07:31:27.653Z,101664.84
2022-08-22T07:34:17.889Z,101671.94
2022-08-22T07:36:51.617Z,101643.69
2022-08-22T07:39:31.929Z,101673.81
2022-08-22T07:42:12.056Z,101642.38
2022-08-22T07:45:07.034Z,101664.91
2022-08-22T07:47:55.239Z,101665.34
2022-08-22T07:50:29.377Z,101666.19
2022-08-22T07:53:05.319Z,101662.75
2022-08-22T07:55:34.355Z,101661.97
2022-08-22T07:58:15.398Z,101650.97
2022-08-22T08:00:47.697Z,101662.97
2022-08-22T08:03:16.519Z,101651.31
2022-08-22T08:05:46.628Z,101661.28
2022-08-22T08:08:22.996Z,101657.88
2022-08-22T08:10:56.072Z,101649.41
2022-08-22T08:13:30.592Z,101648.50
2022-08-22T08:16:01.067Z,101659.06
2022-08-22T08:18:33.894Z,101650.41
2022-08-22T08:21:07.781Z,101649.47
2022-08-22T08:23:42.338Z,101644.09
2022-08-22T08:26:17.320Z,101640.44
2022-08-22T08:28:49.019Z,101642.50
2022-08-22T08:31:26.062Z,101628.09
2022-08-22T08:34:03.246Z,101624.84
2022-08-22T08:36:51.698Z,101643.25
2022-08-22T08:39:28.580Z,101639.63
2022-08-22T08:43:05.256Z,101642.00
2022-08-22T08:46:02.608Z,101628.34
2022-08-22T08:48:58.859Z,101643.53
2022-08-22T08:51:52.526Z,101635.16
2022-08-22T08:55:19.855Z,101635.31
2022-08-22T08:58:06.982Z,101624.75
2022-08-22T09:00:55.539Z,101612.25
2022-08-22T09:04:06.757Z,101631.94
2022-08-22T09:07:07.518Z,101635.34
2022-08-22T09:09:59.346Z,101633.63
2022-08-22T09:12:56.159Z,101632.72
2022-08-22T09:16:04.611Z,101627.91
2022-08-22T09:19:06.610Z,101619.66
2022-08-22T09:22:14.269Z,101631.63
2022-08-22T09:25:38.331Z,101624.88
2022-08-22T09:28:20.561Z,101623.34
2022-08-22T09:34:12.520Z,101624.75
2022-08-22T09:37:06.510Z,101620.78
2022-08-22T09:40:15.634Z,101597.50
2022-08-22T09:40:15.731Z,101589.97
2022-08-22T09:42:49.509Z,101599.69
2022-08-22T09:45:50.090Z,101605.91
2022-08-22T09:48:48.659Z,101598.84
2022-08-22T09:51:33.118Z,101599.16
2022-08-22T09:54:22.882Z,101612.25
2022-08-22T09:57:02.295Z,101615.28
2022-08-22T09:59:50.123Z,101587.72
2022-08-22T10:02:32.415Z,101609.88
2022-08-22T10:05:40.912Z,101614.31
2022-08-22T10:08:19.781Z,101611.91
2022-08-22T10:11:11.346Z,101580.41
2022-08-22T10:14:02.407Z,101603.38
2022-08-22T10:17:01.969Z,101582.47
2022-08-22T10:19:38.196Z,101597.00
2022-08-22T10:22:33.156Z,101598.13
2022-08-22T10:25:22.723Z,101568.13
2022-08-22T10:28:10.618Z,101583.25
2022-08-22T10:30:54.764Z,101551.16
2022-08-22T10:33:32.350Z,101579.47
2022-08-22T10:36:07.879Z,101570.00
2022-08-22T10:38:47.219Z,101552.31
2022-08-22T10:41:31.152Z,101550.47
2022-08-22T10:44:07.687Z,101573.34
2022-08-22T10:46:46.200Z,101567.47
2022-08-22T10:49:28.732Z,101563.28
2022-08-22T10:52:15.803Z,101537.03
2022-08-22T10:54:51.288Z,101564.34
2022-08-22T10:57:52.570Z,101569.16
2022-08-22T11:00:46.417Z,101551.06
2022-08-22T11:03:25.787Z,101560.38
2022-08-22T11:05:59.076Z,101551.06
2022-08-22T11:09:01.329Z,101560.75
2022-08-22T11:11:54.660Z,101553.47
2022-08-22T11:15:03.079Z,101553.47
2022-08-22T11:18:15.217Z,101549.41
2022-08-22T11:20:57.915Z,101551.28
2022-08-22T11:23:40.677Z,101552.13
2022-08-22T11:26:33.414Z,101552.53
2022-08-22T11:29:38.651Z,101543.09
2022-08-22T11:32:18.214Z,101551.16
2022-08-22T11:34:58.585Z,101551.06
2022-08-22T11:37:48.822Z,101557.91
2022-08-22T11:40:37.821Z,101551.16
2022-08-22T11:43:36.815Z,101540.00
2022-08-22T11:46:22.843Z,101555.03
2022-08-22T11:49:27.752Z,101557.84
2022-08-22T11:52:20.868Z,101561.56
2022-08-22T11:55:12.660Z,101555.19
2022-08-22T11:57:45.154Z,101560.88
2022-08-22T12:00:30.537Z,101546.09
2022-08-22T12:03:27.003Z,101553.38
2022-08-22T12:06:04.065Z,101549.41
2022-08-22T12:09:25.740Z,101549.25
2022-08-22T12:12:17.264Z,101563.94
2022-08-22T12:14:55.174Z,101547.03
2022-08-22T12:18:10.544Z,101552.09
2022-08-22T12:21:21.572Z,101545.53
2022-08-22T12:24:22.585Z,101552.59
2022-08-22T12:27:18.315Z,101537.78
2022-08-22T12:30:14.189Z,101537.13
2022-08-22T12:33:26.792Z,101519.59
2022-08-22T12:36:19.019Z,101529.38
2022-08-22T12:39:24.482Z,101532.22
2022-08-22T12:42:57.098Z,101529.28
2022-08-22T12:45:46.348Z,101532.03
2022-08-22T12:48:40.113Z,101518.88
2022-08-22T12:51:30.041Z,101523.56
2022-08-22T12:54:47.418Z,101497.59
2022-08-22T12:57:31.099Z,101509.50
2022-08-22T13:00:27.074Z,101501.16
2022-08-22T13:03:02.182Z,101507.56
2022-08-22T13:05:40.719Z,101507.84
2022-08-22T13:08:17.589Z,101489.22
2022-08-22T13:10:49.812Z,101504.66
2022-08-22T13:13:36.492Z,101492.16
2022-08-22T13:16:11.526Z,101498.75
2022-08-22T13:18:48.170Z,101495.66
2022-08-22T13:21:31.638Z,101468.78
2022-08-22T13:24:11.854Z,101460.88
2022-08-22T13:26:52.520Z,101499.75
2022-08-22T13:29:27.336Z,101485.78
2022-08-22T13:32:04.552Z,101502.94
2022-08-22T13:34:43.720Z,101495.09
2022-08-22T13:37:24.610Z,101484.91
2022-08-22T13:40:03.103Z,101493.16
2022-08-22T13:42:40.689Z,101486.19
2022-08-22T13:45:18.907Z,101473.50
2022-08-22T13:47:59.789Z,101475.88
2022-08-22T13:50:53.656Z,101440.19
2022-08-22T13:53:32.881Z,101455.75
2022-08-22T13:56:15.893Z,101458.13
2022-08-22T13:58:51.373Z,101454.69
2022-08-22T14:01:37.917Z,101475.56
2022-08-22T14:04:33.318Z,101466.53
2022-08-22T14:07:30.211Z,101474.13
2022-08-22T14:10:04.768Z,101469.41
2022-08-22T14:12:50.796Z,101457.81
2022-08-22T14:15:26.432Z,101458.31
2022-08-22T14:18:13.056Z,101460.13
2022-08-22T14:20:43.864Z,101461.53
2022-08-22T14:23:19.521Z,101456.50
2022-08-22T14:25:52.821Z,101429.13
2022-08-22T14:28:28.693Z,101461.94
2022-08-22T14:31:03.334Z,101452.91
2022-08-22T14:33:39.796Z,101434.53
2022-08-22T14:36:17.533Z,101458.84
2022-08-22T14:38:52.261Z,101457.38
2022-08-22T14:41:52.515Z,101446.03
2022-08-22T14:44:28.801Z,101446.03
2022-08-22T14:47:03.704Z,101436.03
2022-08-22T14:49:49.392Z,101443.09
2022-08-22T14:52:40.676Z,101419.69
2022-08-22T14:55:25.276Z,101439.22
2022-08-22T14:57:58.539Z,101436.09
2022-08-22T15:00:35.696Z,101441.88
2022-08-22T15:03:26.157Z,101436.41
2022-08-22T15:05:59.066Z,101426.22
2022-08-22T15:08:33.805Z,101441.22
2022-08-22T15:11:15.299Z,101425.06
2022-08-22T15:14:03.207Z,101436.47
2022-08-22T15:16:40.416Z,101426.38
2022-08-22T15:19:27.247Z,101415.00
2022-08-22T15:22:13.723Z,101422.81
2022-08-22T15:24:50.077Z,101427.22
2022-08-22T15:27:25.376Z,101421.28
2022-08-22T15:30:01.016Z,101419.66
2022-08-22T15:32:41.731Z,101417.19
2022-08-22T15:35:14.190Z,101404.09
2022-08-22T15:37:58.137Z,101413.66
2022-08-22T15:40:40.439Z,101391.81
2022-08-22T15:43:24.391Z,101387.41
2022-08-22T15:46:09.960Z,101403.56
2022-08-22T15:48:58.196Z,101381.75
2022-08-22T15:51:42.072Z,101384.81
2022-08-22T15:54:24.907Z,101366.97
2022-08-22T15:57:23.804Z,101376.19
2022-08-22T15:59:55.596Z,101371.16
2022-08-22T16:02:35.378Z,101370.50
2022-08-22T16:05:27.375Z,101380.78
2022-08-22T16:08:06.086Z,101368.78
2022-08-22T16:10:40.818Z,101393.06
2022-08-22T16:13:33.653Z,101342.81
2022-08-22T16:16:07.184Z,101381.75
2022-08-22T16:19:21.175Z,101379.53
2022-08-22T16:22:14.340Z,101375.84
2022-08-22T16:25:10.996Z,101370.38
2022-08-22T16:27:58.543Z,101376.75
2022-08-22T16:30:38.829Z,101358.69
2022-08-22T16:33:18.522Z,101354.47
2022-08-22T16:36:40.981Z,101369.81
2022-08-22T16:39:31.267Z,101365.97
2022-08-22T16:42:34.975Z,101363.59
2022-08-22T16:45:31.037Z,101354.53
2022-08-22T16:48:00.037Z,101361.59
2022-08-22T16:50:40.833Z,101358.69
2022-08-22T16:53:33.153Z,101362.25
2022-08-22T16:56:23.775Z,101348.84
2022-08-22T16:59:24.915Z,101352.03
2022-08-22T17:02:12.128Z,101343.47
2022-08-22T17:04:56.613Z,101339.81
2022-08-22T17:07:44.467Z,101360.97
2022-08-22T17:10:30.072Z,101356.22
2022-08-22T17:13:19.805Z,101362.56
2022-08-22T17:16:04.303Z,101349.16
2022-08-22T17:19:05.017Z,101346.13
2022-08-22T17:21:41.074Z,101335.78
2022-08-22T17:24:31.839Z,101351.31
2022-08-22T17:27:12.003Z,101337.59
2022-08-22T17:29:58.255Z,101358.25
2022-08-22T17:32:41.820Z,101351.44
2022-08-22T17:35:21.761Z,101354.28
2022-08-22T17:38:09.201Z,101350.56
2022-08-22T17:40:52.665Z,101370.66
2022-08-22T17:43:48.644Z,101361.38
2022-08-22T17:46:43.717Z,101359.00
2022-08-22T17:49:48.926Z,101361.66
2022-08-22T17:52:26.807Z,101383.00
2022-08-22T17:55:02.353Z,101377.31
2022-08-22T17:57:35.706Z,101371.84
2022-08-22T18:00:30.489Z,101376.97
2022-08-22T18:03:08.385Z,101367.31
2022-08-22T18:05:47.949Z,101388.78
2022-08-22T18:11:24.469Z,101387.69
2022-08-22T18:14:05.147Z,101370.38
2022-08-22T18:16:43.626Z,101389.53
2022-08-22T18:19:34.273Z,101388.31
2022-08-22T18:22:08.878Z,101369.78
2022-08-22T18:24:48.796Z,101390.09
2022-08-22T18:27:29.679Z,101386.97
2022-08-22T18:30:16.852Z,101366.84
2022-08-22T18:32:57.800Z,101376.00
2022-08-22T18:35:34.870Z,101395.34
2022-08-22T18:38:19.631Z,101401.75
2022-08-22T18:40:58.038Z,101377.78
2022-08-22T18:43:39.146Z,101385.53
2022-08-22T18:46:40.857Z,101398.00
2022-08-22T18:49:43.871Z,101407.78
2022-08-22T18:52:19.707Z,101401.00
2022-08-22T18:55:19.881Z,101405.75
2022-08-22T18:58:22.472Z,101393.06
2022-08-22T19:01:10.332Z,101410.44
2022-08-22T19:04:05.462Z,101412.38
2022-08-22T19:06:48.608Z,101393.75
2022-08-22T19:09:53.690Z,101403.28
2022-08-22T19:12:46.425Z,101397.75
2022-08-22T19:15:32.700Z,101408.53
2022-08-22T19:18:30.698Z,101425.09
2022-08-22T19:21:42.814Z,101402.41
2022-08-22T19:24:29.761Z,101427.47
2022-08-22T19:27:31.590Z,101424.41
2022-08-22T19:30:04.028Z,101422.22
2022-08-22T19:33:01.689Z,101428.06
2022-08-22T19:35:46.396Z,101423.88
2022-08-22T19:38:56.760Z,101434.31
2022-08-22T19:41:52.679Z,101432.91
2022-08-22T19:44:39.867Z,101420.94
2022-08-22T19:47:27.806Z,101437.53
2022-08-22T19:50:06.034Z,101421.25
2022-08-22T19:52:55.566Z,101424.81
2022-08-22T19:55:34.195Z,101437.59
2022-08-22T19:58:17.360Z,101412.97
2022-08-22T20:01:00.340Z,101417.78
2022-08-22T20:03:45.806Z,101414.06
2022-08-22T20:06:43.997Z,101437.53
2022-08-22T20:09:38.435Z,101411.88
2022-08-22T20:12:20.018Z,101426.84
2022-08-22T20:14:49.934Z,101429.59
2022-08-22T20:17:43.753Z,101415.59
2022-08-22T20:20:35.284Z,101429.44
2022-08-22T20:23:13.454Z,101421.66
2022-08-22T20:25:48.692Z,101429.63
2022-08-22T20:28:36.342Z,101401.75
2022-08-22T20:31:11.768Z,101429.88
2022-08-22T20:33:46.023Z,101424.69
2022-08-22T20:36:28.371Z,101423.97
2022-08-22T20:39:05.934Z,101427.47
2022-08-22T20:41:38.056Z,101421.19
2022-08-22T20:44:15.838Z,101415.16
2022-08-22T20:46:55.357Z,101407.34
2022-08-22T20:49:31.549Z,101426.88
2022-08-22T20:52:04.359Z,101393.50
2022-08-22T20:54:37.948Z,101414.47
2022-08-22T20:57:16.168Z,101423.16
2022-08-22T20:59:54.936Z,101418.56
2022-08-22T21:02:26.862Z,101422.06
2022-08-22T21:05:03.325Z,101408.19
2022-08-22T21:07:35.740Z,101412.38
2022-08-22T21:10:27.378Z,101416.94
2022-08-22T21:13:10.942Z,101391.03
2022-08-22T21:15:43.578Z,101414.72
2022-08-22T21:18:14.416Z,101401.28
2022-08-22T21:20:44.155Z,101404.28
2022-08-22T21:23:16.611Z,101389.41
2022-08-22T21:25:54.764Z,101414.34
2022-08-22T21:28:35.548Z,101403.41
2022-08-22T21:31:14.200Z,101395.09
2022-08-22T21:33:49.054Z,101392.47
2022-08-22T21:36:22.554Z,101393.69
2022-08-22T21:38:55.698Z,101393.81
2022-08-22T21:41:30.925Z,101403.38
2022-08-22T21:44:36.233Z,101385.81
2022-08-22T21:47:30.736Z,101356.50
2022-08-22T21:50:10.365Z,101391.84
2022-08-22T21:52:44.759Z,101424.47
2022-08-22T21:55:25.674Z,101409.66
2022-08-22T21:58:36.878Z,101426.38
2022-08-22T22:01:28.855Z,101418.50
2022-08-22T22:03:58.337Z,101411.81
2022-08-22T22:06:27.685Z,101400.63
2022-08-22T22:08:57.943Z,101424.22
2022-08-22T22:11:26.311Z,101424.94
2022-08-22T22:13:55.628Z,101431.50
2022-08-22T22:16:28.090Z,101410.44
2022-08-22T22:18:57.154Z,101425.50
2022-08-22T22:21:25.778Z,101422.13
2022-08-22T22:23:54.360Z,101399.41
2022-08-22T22:26:29.980Z,101409.06
2022-08-22T22:29:00.123Z,101409.97
2022-08-22T22:31:28.584Z,101412.84
2022-08-22T22:33:57.007Z,101433.00
2022-08-22T22:36:28.614Z,101424.19
2022-08-22T22:38:57.034Z,101426.00
2022-08-22T22:41:25.803Z,101421.91
2022-08-22T22:43:56.415Z,101383.13
2022-08-22T22:46:26.836Z,101415.78
2022-08-22T22:48:55.579Z,101430.72
2022-08-22T22:51:24.629Z,101401.00
2022-08-22T22:53:53.054Z,101412.38
2022-08-22T22:56:24.407Z,101436.38
2022-08-22T22:58:59.107Z,101415.97
2022-08-22T23:01:30.825Z,101437.22
2022-08-22T23:04:04.869Z,101416.19
2022-08-22T23:06:35.435Z,101416.19
2022-08-22T23:09:04.229Z,101432.03
2022-08-22T23:11:32.911Z,101416.34
2022-08-22T23:14:03.681Z,101433.03
2022-08-22T23:16:37.250Z,101439.25
2022-08-22T23:19:10.236Z,101412.84
2022-08-22T23:21:39.431Z,101430.34
2022-08-22T23:24:08.362Z,101429.47
2022-08-22T23:26:37.023Z,101412.97
2022-08-22T23:29:07.350Z,101401.56
2022-08-22T23:31:41.558Z,101429.00
2022-08-22T23:34:12.936Z,101426.31
2022-08-22T23:36:45.827Z,101379.84
2022-08-22T23:39:16.358Z,101379.75
2022-08-22T23:41:47.689Z,101402.66
2022-08-22T23:44:19.359Z,101430.88
2022-08-22T23:46:49.597Z,101432.66
2022-08-22T23:49:19.151Z,101406.22
2022-08-22T23:51:49.120Z,101421.22
2022-08-22T23:54:18.832Z,101430.88
2022-08-22T23:56:50.398Z,101429.16
2022-08-22T23:59:22.943Z,101416.81
